sensor_id;sensor_type;location;lat;lon;timestamp;temperature;humidity
14154;DHT22;7157;53.144;7.570;2023-04-24T00:08:31;12.53;95.52
14154;DHT22;7157;53.144;7.570;2023-04-24T00:18:36;12.19;97.63
14154;DHT22;7157;53.144;7.570;2023-04-24T00:28:40;11.96;97.64
14154;DHT22;7157;53.144;7.570;2023-04-24T00:38:43;11.98;97.35
14154;DHT22;7157;53.144;7.570;2023-04-24T00:48:51;11.78;98.32
14154;DHT22;7157;53.144;7.570;2023-04-24T00:58:55;11.48;101.11
14154;DHT22;7157;53.144;7.570;2023-04-24T01:08:59;11.57;100.69
14154;DHT22;7157;53.144;7.570;2023-04-24T01:19:04;11.09;102.73
14154;DHT22;7157;53.144;7.570;2023-04-24T01:29:09;10.73;104.64
14154;DHT22;7157;53.144;7.570;2023-04-24T01:39:12;10.67;104.61
14154;DHT22;7157;53.144;7.570;2023-04-24T01:49:18;10.65;104.45
14154;DHT22;7157;53.144;7.570;2023-04-24T01:59:23;10.63;104.31
14154;DHT22;7157;53.144;7.570;2023-04-24T02:09:29;10.49;104.63
14154;DHT22;7157;53.144;7.570;2023-04-24T02:19:31;10.24;104.76
14154;DHT22;7157;53.144;7.570;2023-04-24T02:29:36;10.23;105.18
14154;DHT22;7157;53.144;7.570;2023-04-24T02:39:39;10.34;104.79
14154;DHT22;7157;53.144;7.570;2023-04-24T02:49:43;10.33;104.10
14154;DHT22;7157;53.144;7.570;2023-04-24T02:59:46;10.41;103.90
14154;DHT22;7157;53.144;7.570;2023-04-24T03:09:51;10.55;102.87
14154;DHT22;7157;53.144;7.570;2023-04-24T03:19:55;10.58;102.06
14154;DHT22;7157;53.144;7.570;2023-04-24T03:30:01;10.70;100.27
14154;DHT22;7157;53.144;7.570;2023-04-24T03:40:08;10.84;98.56
14154;DHT22;7157;53.144;7.570;2023-04-24T03:50:17;10.68;98.24
14154;DHT22;7157;53.144;7.570;2023-04-24T04:00:24;10.48;98.82
14154;DHT22;7157;53.144;7.570;2023-04-24T04:10:36;10.93;97.72
14154;DHT22;7157;53.144;7.570;2023-04-24T04:20:38;10.98;98.02
14154;DHT22;7157;53.144;7.570;2023-04-24T04:30:57;10.94;98.91
14154;DHT22;7157;53.144;7.570;2023-04-24T04:41:00;10.95;99.03
14154;DHT22;7157;53.144;7.570;2023-04-24T04:51:05;10.72;100.79
14154;DHT22;7157;53.144;7.570;2023-04-24T05:01:09;10.64;99.77
14154;DHT22;7157;53.144;7.570;2023-04-24T05:11:13;10.81;100.54
14154;DHT22;7157;53.144;7.570;2023-04-24T05:21:24;10.82;100.54
14154;DHT22;7157;53.144;7.570;2023-04-24T05:31:41;10.96;99.35
14154;DHT22;7157;53.144;7.570;2023-04-24T05:41:44;10.77;99.27
14154;DHT22;7157;53.144;7.570;2023-04-24T05:51:53;10.93;98.00
14154;DHT22;7157;53.144;7.570;2023-04-24T06:02:10;11.20;96.68
14154;DHT22;7157;53.144;7.570;2023-04-24T06:12:29;11.27;95.70
14154;DHT22;7157;53.144;7.570;2023-04-24T06:22:34;11.37;95.01
14154;DHT22;7157;53.144;7.570;2023-04-24T06:32:39;11.54;93.76
14154;DHT22;7157;53.144;7.570;2023-04-24T06:42:44;12.07;93.08
14154;DHT22;7157;53.144;7.570;2023-04-24T06:52:51;12.40;90.55
14154;DHT22;7157;53.144;7.570;2023-04-24T07:03:01;11.94;91.81
14154;DHT22;7157;53.144;7.570;2023-04-24T07:13:20;12.35;90.43
14154;DHT22;7157;53.144;7.570;2023-04-24T07:23:42;12.28;88.33
14154;DHT22;7157;53.144;7.570;2023-04-24T07:33:53;12.22;87.85
14154;DHT22;7157;53.144;7.570;2023-04-24T07:43:59;11.71;90.74
14154;DHT22;7157;53.144;7.570;2023-04-24T07:54:05;11.72;92.37
14154;DHT22;7157;53.144;7.570;2023-04-24T08:04:08;11.27;96.13
14154;DHT22;7157;53.144;7.570;2023-04-24T08:14:13;10.97;96.29
14154;DHT22;7157;53.144;7.570;2023-04-24T08:24:16;11.43;95.98
14154;DHT22;7157;53.144;7.570;2023-04-24T08:34:20;10.90;98.19
14154;DHT22;7157;53.144;7.570;2023-04-24T08:44:23;10.84;100.29
14154;DHT22;7157;53.144;7.570;2023-04-24T08:54:28;10.66;102.48
14154;DHT22;7157;53.144;7.570;2023-04-24T09:04:32;10.55;104.06
14154;DHT22;7157;53.144;7.570;2023-04-24T09:14:38;10.73;104.05
14154;DHT22;7157;53.144;7.570;2023-04-24T09:24:45;10.71;104.46
14154;DHT22;7157;53.144;7.570;2023-04-24T09:34:49;10.49;105.50
14154;DHT22;7157;53.144;7.570;2023-04-24T09:44:52;10.51;105.50
14154;DHT22;7157;53.144;7.570;2023-04-24T09:55:22;10.48;106.14
14154;DHT22;7157;53.144;7.570;2023-04-24T10:05:33;10.45;106.13
14154;DHT22;7157;53.144;7.570;2023-04-24T10:15:42;10.65;106.34
14154;DHT22;7157;53.144;7.570;2023-04-24T10:25:52;10.85;104.92
14154;DHT22;7157;53.144;7.570;2023-04-24T10:35:57;10.37;105.90
14154;DHT22;7157;53.144;7.570;2023-04-24T10:46:10;10.22;105.74
14154;DHT22;7157;53.144;7.570;2023-04-24T10:56:23;10.12;104.37
14154;DHT22;7157;53.144;7.570;2023-04-24T11:06:37;9.93;105.62
14154;DHT22;7157;53.144;7.570;2023-04-24T11:16:57;9.84;105.09
14154;DHT22;7157;53.144;7.570;2023-04-24T11:27:30;9.48;105.82
14154;DHT22;7157;53.144;7.570;2023-04-24T11:37:47;9.18;106.47
14154;DHT22;7157;53.144;7.570;2023-04-24T11:47:59;9.00;106.94
14154;DHT22;7157;53.144;7.570;2023-04-24T11:58:09;9.41;106.08
14154;DHT22;7157;53.144;7.570;2023-04-24T12:08:27;9.54;105.18
14154;DHT22;7157;53.144;7.570;2023-04-24T12:18:44;9.26;104.81
14154;DHT22;7157;53.144;7.570;2023-04-24T12:29:01;9.82;104.24
14154;DHT22;7157;53.144;7.570;2023-04-24T12:39:14;9.97;102.66
14154;DHT22;7157;53.144;7.570;2023-04-24T12:49:19;9.83;99.19
14154;DHT22;7157;53.144;7.570;2023-04-24T12:59:28;9.64;100.64
14154;DHT22;7157;53.144;7.570;2023-04-24T13:09:34;9.48;102.70
14154;DHT22;7157;53.144;7.570;2023-04-24T13:19:40;9.30;101.51
14154;DHT22;7157;53.144;7.570;2023-04-24T13:29:43;9.40;100.50
14154;DHT22;7157;53.144;7.570;2023-04-24T13:39:47;9.27;100.66
14154;DHT22;7157;53.144;7.570;2023-04-24T13:49:50;9.12;100.98
14154;DHT22;7157;53.144;7.570;2023-04-24T13:59:54;9.64;98.04
14154;DHT22;7157;53.144;7.570;2023-04-24T14:09:59;9.91;97.45
14154;DHT22;7157;53.144;7.570;2023-04-24T14:20:05;9.88;95.39
14154;DHT22;7157;53.144;7.570;2023-04-24T14:30:11;10.12;94.17
14154;DHT22;7157;53.144;7.570;2023-04-24T14:40:16;9.70;92.48
14154;DHT22;7157;53.144;7.570;2023-04-24T14:50:42;9.59;92.21
14154;DHT22;7157;53.144;7.570;2023-04-24T15:00:49;10.18;92.26
14154;DHT22;7157;53.144;7.570;2023-04-24T15:11:11;10.20;92.28
14154;DHT22;7157;53.144;7.570;2023-04-24T15:21:15;9.98;92.97
14154;DHT22;7157;53.144;7.570;2023-04-24T15:31:18;9.14;97.31
14154;DHT22;7157;53.144;7.570;2023-04-24T15:41:22;9.30;98.54
14154;DHT22;7157;53.144;7.570;2023-04-24T15:51:25;9.32;98.42
14154;DHT22;7157;53.144;7.570;2023-04-24T16:01:29;9.65;96.86
14154;DHT22;7157;53.144;7.570;2023-04-24T16:11:32;10.01;94.11
14154;DHT22;7157;53.144;7.570;2023-04-24T16:21:38;10.07;93.35
14154;DHT22;7157;53.144;7.570;2023-04-24T16:31:40;10.20;92.18
14154;DHT22;7157;53.144;7.570;2023-04-24T16:41:45;10.39;92.72
14154;DHT22;7157;53.144;7.570;2023-04-24T16:51:50;10.27;92.11
14154;DHT22;7157;53.144;7.570;2023-04-24T17:01:54;9.44;95.58
14154;DHT22;7157;53.144;7.570;2023-04-24T17:11:57;8.92;100.58
14154;DHT22;7157;53.144;7.570;2023-04-24T17:22:01;8.64;102.76
14154;DHT22;7157;53.144;7.570;2023-04-24T17:32:07;8.62;103.05
14154;DHT22;7157;53.144;7.570;2023-04-24T17:42:11;8.66;103.92
14154;DHT22;7157;53.144;7.570;2023-04-24T17:52:14;8.51;104.39
14154;DHT22;7157;53.144;7.570;2023-04-24T18:02:19;8.50;104.63
14154;DHT22;7157;53.144;7.570;2023-04-24T18:12:22;8.51;105.63
14154;DHT22;7157;53.144;7.570;2023-04-24T18:22:26;8.53;104.71
14154;DHT22;7157;53.144;7.570;2023-04-24T18:32:30;8.67;103.14
14154;DHT22;7157;53.144;7.570;2023-04-24T18:42:34;8.63;101.31
14154;DHT22;7157;53.144;7.570;2023-04-24T18:52:37;8.38;103.91
14154;DHT22;7157;53.144;7.570;2023-04-24T19:02:42;8.31;104.21
14154;DHT22;7157;53.144;7.570;2023-04-24T19:12:45;8.16;103.74
14154;DHT22;7157;53.144;7.570;2023-04-24T19:22:51;8.14;103.18
14154;DHT22;7157;53.144;7.570;2023-04-24T19:32:54;8.03;102.99
14154;DHT22;7157;53.144;7.570;2023-04-24T19:42:59;8.02;103.05
14154;DHT22;7157;53.144;7.570;2023-04-24T19:53:02;7.92;102.01
14154;DHT22;7157;53.144;7.570;2023-04-24T20:03:08;7.99;101.69
14154;DHT22;7157;53.144;7.570;2023-04-24T20:13:31;8.01;102.14
14154;DHT22;7157;53.144;7.570;2023-04-24T20:23:35;8.06;101.73
14154;DHT22;7157;53.144;7.570;2023-04-24T20:33:38;8.05;101.88
14154;DHT22;7157;53.144;7.570;2023-04-24T20:43:43;8.11;102.29
14154;DHT22;7157;53.144;7.570;2023-04-24T20:53:46;8.24;102.06
14154;DHT22;7157;53.144;7.570;2023-04-24T21:03:51;8.33;101.95
14154;DHT22;7157;53.144;7.570;2023-04-24T21:13:55;8.38;101.73
14154;DHT22;7157;53.144;7.570;2023-04-24T21:23:59;8.49;101.47
14154;DHT22;7157;53.144;7.570;2023-04-24T21:34:04;8.26;103.07
14154;DHT22;7157;53.144;7.570;2023-04-24T21:44:08;8.20;104.19
14154;DHT22;7157;53.144;7.570;2023-04-24T21:54:11;8.13;105.49
14154;DHT22;7157;53.144;7.570;2023-04-24T22:04:16;8.49;104.06
14154;DHT22;7157;53.144;7.570;2023-04-24T22:14:18;8.50;101.84
14154;DHT22;7157;53.144;7.570;2023-04-24T22:24:23;8.28;103.43
14154;DHT22;7157;53.144;7.570;2023-04-24T22:34:26;8.17;102.38
14154;DHT22;7157;53.144;7.570;2023-04-24T22:44:30;8.27;101.83
14154;DHT22;7157;53.144;7.570;2023-04-24T22:54:33;8.27;101.72
14154;DHT22;7157;53.144;7.570;2023-04-24T23:04:37;8.33;100.61
14154;DHT22;7157;53.144;7.570;2023-04-24T23:14:40;8.42;99.42
14154;DHT22;7157;53.144;7.570;2023-04-24T23:24:44;8.44;99.28
14154;DHT22;7157;53.144;7.570;2023-04-24T23:34:47;8.33;97.44
14154;DHT22;7157;53.144;7.570;2023-04-24T23:44:52;8.38;97.99
14154;DHT22;7157;53.144;7.570;2023-04-24T23:54:55;8.35;95.46
